sensor_id;sensor_type;location;lat;lon;timestamp;P1;durP1;ratioP1;P2;durP2;ratioP2
18042;SDS011;9146;48.074;11.968;2022-07-10T00:00:07;3.30;;;3.00;;
18042;SDS011;9146;48.074;11.968;2022-07-10T00:02:36;3.90;;;3.60;;
18042;SDS011;9146;48.074;11.968;2022-07-10T00:05:05;3.63;;;3.07;;
18042;SDS011;9146;48.074;11.968;2022-07-10T00:07:32;3.27;;;3.07;;
18042;SDS011;9146;48.074;11.968;2022-07-10T00:09:59;3.60;;;3.23;;
18042;SDS011;9146;48.074;11.968;2022-07-10T00:12:26;3.67;;;3.40;;
18042;SDS011;9146;48.074;11.968;2022-07-10T00:14:53;3.67;;;3.33;;
18042;SDS011;9146;48.074;11.968;2022-07-10T00:17:20;4.50;;;3.40;;
18042;SDS011;9146;48.074;11.968;2022-07-10T00:19:47;3.77;;;3.30;;
18042;SDS011;9146;48.074;11.968;2022-07-10T00:22:16;2.90;;;2.70;;
18042;SDS011;9146;48.074;11.968;2022-07-10T00:24:42;3.20;;;3.00;;
18042;SDS011;9146;48.074;11.968;2022-07-10T00:27:09;5.07;;;2.90;;
18042;SDS011;9146;48.074;11.968;2022-07-10T00:29:36;5.33;;;2.90;;
18042;SDS011;9146;48.074;11.968;2022-07-10T00:32:04;3.83;;;3.50;;
18042;SDS011;9146;48.074;11.968;2022-07-10T00:34:31;4.10;;;3.37;;
18042;SDS011;9146;48.074;11.968;2022-07-10T00:36:58;4.20;;;3.70;;
18042;SDS011;9146;48.074;11.968;2022-07-10T00:39:27;7.00;;;3.37;;
18042;SDS011;9146;48.074;11.968;2022-07-10T00:41:54;5.43;;;3.40;;
18042;SDS011;9146;48.074;11.968;2022-07-10T00:44:21;4.13;;;3.80;;
18042;SDS011;9146;48.074;11.968;2022-07-10T00:46:47;3.17;;;2.90;;
18042;SDS011;9146;48.074;11.968;2022-07-10T00:49:14;3.33;;;3.03;;
18042;SDS011;9146;48.074;11.968;2022-07-10T00:51:41;3.60;;;3.07;;
18042;SDS011;9146;48.074;11.968;2022-07-10T00:54:10;3.03;;;2.83;;
18042;SDS011;9146;48.074;11.968;2022-07-10T00:56:38;2.77;;;2.57;;
18042;SDS011;9146;48.074;11.968;2022-07-10T00:59:05;3.60;;;3.40;;
18042;SDS011;9146;48.074;11.968;2022-07-10T01:01:32;3.80;;;3.50;;
18042;SDS011;9146;48.074;11.968;2022-07-10T01:04:00;6.10;;;4.20;;
18042;SDS011;9146;48.074;11.968;2022-07-10T01:06:26;4.53;;;3.80;;
18042;SDS011;9146;48.074;11.968;2022-07-10T01:08:54;4.80;;;4.40;;
18042;SDS011;9146;48.074;11.968;2022-07-10T01:11:22;3.87;;;3.57;;
18042;SDS011;9146;48.074;11.968;2022-07-10T01:13:50;4.50;;;4.10;;
18042;SDS011;9146;48.074;11.968;2022-07-10T01:16:17;4.40;;;4.00;;
18042;SDS011;9146;48.074;11.968;2022-07-10T01:18:44;6.77;;;5.00;;
18042;SDS011;9146;48.074;11.968;2022-07-10T01:23:58;5.13;;;4.73;;
18042;SDS011;9146;48.074;11.968;2022-07-10T01:26:26;5.67;;;5.17;;
18042;SDS011;9146;48.074;11.968;2022-07-10T01:28:53;4.60;;;4.20;;
18042;SDS011;9146;48.074;11.968;2022-07-10T01:31:24;7.13;;;5.33;;
18042;SDS011;9146;48.074;11.968;2022-07-10T01:33:52;5.63;;;4.60;;
18042;SDS011;9146;48.074;11.968;2022-07-10T01:36:19;5.63;;;5.13;;
18042;SDS011;9146;48.074;11.968;2022-07-10T01:38:48;5.80;;;5.30;;
18042;SDS011;9146;48.074;11.968;2022-07-10T01:41:17;7.20;;;5.57;;
18042;SDS011;9146;48.074;11.968;2022-07-10T01:43:44;5.70;;;5.20;;
18042;SDS011;9146;48.074;11.968;2022-07-10T01:46:13;5.20;;;4.80;;
18042;SDS011;9146;48.074;11.968;2022-07-10T01:48:40;6.27;;;5.77;;
18042;SDS011;9146;48.074;11.968;2022-07-10T01:51:08;6.20;;;5.53;;
18042;SDS011;9146;48.074;11.968;2022-07-10T01:53:36;7.83;;;6.00;;
18042;SDS011;9146;48.074;11.968;2022-07-10T01:56:05;6.80;;;6.20;;
18042;SDS011;9146;48.074;11.968;2022-07-10T01:58:33;6.90;;;6.20;;
18042;SDS011;9146;48.074;11.968;2022-07-10T02:01:01;6.77;;;6.07;;
18042;SDS011;9146;48.074;11.968;2022-07-10T02:03:28;8.87;;;7.70;;
18042;SDS011;9146;48.074;11.968;2022-07-10T02:06:12;8.80;;;7.90;;
18042;SDS011;9146;48.074;11.968;2022-07-10T02:08:40;11.30;;;9.00;;
18042;SDS011;9146;48.074;11.968;2022-07-10T02:11:08;10.33;;;8.17;;
18042;SDS011;9146;48.074;11.968;2022-07-10T02:13:37;10.10;;;9.10;;
18042;SDS011;9146;48.074;11.968;2022-07-10T02:16:04;11.33;;;10.27;;
18042;SDS011;9146;48.074;11.968;2022-07-10T02:18:31;10.23;;;9.10;;
18042;SDS011;9146;48.074;11.968;2022-07-10T02:20:58;11.50;;;10.40;;
18042;SDS011;9146;48.074;11.968;2022-07-10T02:23:25;11.57;;;10.43;;
18042;SDS011;9146;48.074;11.968;2022-07-10T02:25:53;10.83;;;9.73;;
18042;SDS011;9146;48.074;11.968;2022-07-10T02:28:21;9.97;;;8.97;;
18042;SDS011;9146;48.074;11.968;2022-07-10T02:30:48;10.40;;;9.40;;
18042;SDS011;9146;48.074;11.968;2022-07-10T02:33:15;11.70;;;9.70;;
18042;SDS011;9146;48.074;11.968;2022-07-10T02:35:42;15.20;;;12.30;;
18042;SDS011;9146;48.074;11.968;2022-07-10T02:38:09;10.53;;;9.53;;
18042;SDS011;9146;48.074;11.968;2022-07-10T02:40:36;12.60;;;9.80;;
18042;SDS011;9146;48.074;11.968;2022-07-10T02:43:03;13.10;;;11.03;;
18042;SDS011;9146;48.074;11.968;2022-07-10T02:45:31;11.50;;;10.23;;
18042;SDS011;9146;48.074;11.968;2022-07-10T02:47:58;12.33;;;9.90;;
18042;SDS011;9146;48.074;11.968;2022-07-10T02:50:25;13.97;;;12.47;;
18042;SDS011;9146;48.074;11.968;2022-07-10T02:52:52;13.57;;;12.17;;
18042;SDS011;9146;48.074;11.968;2022-07-10T02:55:19;13.17;;;10.90;;
18042;SDS011;9146;48.074;11.968;2022-07-10T02:57:46;12.67;;;11.47;;
18042;SDS011;9146;48.074;11.968;2022-07-10T03:00:13;14.87;;;11.20;;
18042;SDS011;9146;48.074;11.968;2022-07-10T03:02:41;14.97;;;12.03;;
18042;SDS011;9146;48.074;11.968;2022-07-10T03:05:08;17.20;;;12.00;;
18042;SDS011;9146;48.074;11.968;2022-07-10T03:07:35;12.27;;;10.97;;
18042;SDS011;9146;48.074;11.968;2022-07-10T03:10:02;13.73;;;11.50;;
18042;SDS011;9146;48.074;11.968;2022-07-10T03:12:29;12.50;;;11.20;;
18042;SDS011;9146;48.074;11.968;2022-07-10T03:14:56;14.03;;;12.00;;
18042;SDS011;9146;48.074;11.968;2022-07-10T03:17:24;13.13;;;11.60;;
18042;SDS011;9146;48.074;11.968;2022-07-10T03:19:52;12.30;;;11.10;;
18042;SDS011;9146;48.074;11.968;2022-07-10T03:22:19;14.63;;;11.87;;
18042;SDS011;9146;48.074;11.968;2022-07-10T03:24:47;15.07;;;11.60;;
18042;SDS011;9146;48.074;11.968;2022-07-10T03:27:14;13.13;;;11.70;;
18042;SDS011;9146;48.074;11.968;2022-07-10T03:29:41;12.57;;;10.90;;
18042;SDS011;9146;48.074;11.968;2022-07-10T03:32:08;11.73;;;10.50;;
18042;SDS011;9146;48.074;11.968;2022-07-10T03:34:35;11.20;;;10.10;;
18042;SDS011;9146;48.074;11.968;2022-07-10T03:37:03;12.80;;;11.50;;
18042;SDS011;9146;48.074;11.968;2022-07-10T03:39:31;12.47;;;10.43;;
18042;SDS011;9146;48.074;11.968;2022-07-10T03:41:58;12.57;;;11.30;;
18042;SDS011;9146;48.074;11.968;2022-07-10T03:44:25;11.20;;;10.10;;
18042;SDS011;9146;48.074;11.968;2022-07-10T03:46:52;12.70;;;11.30;;
18042;SDS011;9146;48.074;11.968;2022-07-10T03:49:19;11.50;;;10.30;;
18042;SDS011;9146;48.074;11.968;2022-07-10T03:51:46;11.80;;;10.50;;
18042;SDS011;9146;48.074;11.968;2022-07-10T03:54:14;11.80;;;10.67;;
18042;SDS011;9146;48.074;11.968;2022-07-10T03:56:41;12.27;;;10.97;;
18042;SDS011;9146;48.074;11.968;2022-07-10T03:59:26;12.33;;;11.03;;
18042;SDS011;9146;48.074;11.968;2022-07-10T04:01:53;10.97;;;9.87;;
18042;SDS011;9146;48.074;11.968;2022-07-10T04:04:20;10.87;;;9.80;;
18042;SDS011;9146;48.074;11.968;2022-07-10T04:06:46;10.63;;;9.60;;
18042;SDS011;9146;48.074;11.968;2022-07-10T04:09:15;11.63;;;10.47;;
18042;SDS011;9146;48.074;11.968;2022-07-10T04:11:42;12.27;;;10.97;;
18042;SDS011;9146;48.074;11.968;2022-07-10T04:14:09;11.23;;;10.03;;
18042;SDS011;9146;48.074;11.968;2022-07-10T04:16:36;12.37;;;9.93;;
18042;SDS011;9146;48.074;11.968;2022-07-10T04:19:02;11.87;;;10.53;;
18042;SDS011;9146;48.074;11.968;2022-07-10T04:21:29;11.27;;;10.17;;
18042;SDS011;9146;48.074;11.968;2022-07-10T04:23:56;11.73;;;10.67;;
18042;SDS011;9146;48.074;11.968;2022-07-10T04:26:25;12.50;;;10.53;;
18042;SDS011;9146;48.074;11.968;2022-07-10T04:28:52;12.17;;;11.07;;
18042;SDS011;9146;48.074;11.968;2022-07-10T04:31:18;12.10;;;10.80;;
18042;SDS011;9146;48.074;11.968;2022-07-10T04:33:45;11.37;;;10.13;;
18042;SDS011;9146;48.074;11.968;2022-07-10T04:36:13;10.40;;;9.40;;
18042;SDS011;9146;48.074;11.968;2022-07-10T04:38:40;10.40;;;9.40;;
18042;SDS011;9146;48.074;11.968;2022-07-10T04:41:06;10.03;;;9.20;;
18042;SDS011;9146;48.074;11.968;2022-07-10T04:43:35;10.63;;;9.63;;
18042;SDS011;9146;48.074;11.968;2022-07-10T04:46:02;10.53;;;9.63;;
18042;SDS011;9146;48.074;11.968;2022-07-10T04:48:29;10.00;;;9.07;;
18042;SDS011;9146;48.074;11.968;2022-07-10T04:50:55;9.73;;;8.70;;
18042;SDS011;9146;48.074;11.968;2022-07-10T04:53:23;8.70;;;7.83;;
18042;SDS011;9146;48.074;11.968;2022-07-10T04:55:50;9.13;;;8.33;;
18042;SDS011;9146;48.074;11.968;2022-07-10T04:58:16;8.73;;;7.70;;
18042;SDS011;9146;48.074;11.968;2022-07-10T05:00:45;8.00;;;7.30;;
18042;SDS011;9146;48.074;11.968;2022-07-10T05:03:12;8.80;;;7.90;;
18042;SDS011;9146;48.074;11.968;2022-07-10T05:05:40;7.87;;;7.17;;
18042;SDS011;9146;48.074;11.968;2022-07-10T05:08:08;9.00;;;8.10;;
18042;SDS011;9146;48.074;11.968;2022-07-10T05:10:35;8.90;;;7.57;;
18042;SDS011;9146;48.074;11.968;2022-07-10T05:13:02;7.67;;;7.00;;
18042;SDS011;9146;48.074;11.968;2022-07-10T05:15:29;8.37;;;7.57;;
18042;SDS011;9146;48.074;11.968;2022-07-10T05:17:57;9.13;;;7.97;;
18042;SDS011;9146;48.074;11.968;2022-07-10T05:20:24;8.10;;;7.37;;
18042;SDS011;9146;48.074;11.968;2022-07-10T05:22:51;8.10;;;7.37;;
18042;SDS011;9146;48.074;11.968;2022-07-10T05:25:18;8.13;;;7.07;;
18042;SDS011;9146;48.074;11.968;2022-07-10T05:27:46;9.27;;;8.47;;
18042;SDS011;9146;48.074;11.968;2022-07-10T05:30:12;7.70;;;7.10;;
18042;SDS011;9146;48.074;11.968;2022-07-10T05:32:43;7.50;;;6.70;;
18042;SDS011;9146;48.074;11.968;2022-07-10T05:35:11;10.83;;;7.97;;
18042;SDS011;9146;48.074;11.968;2022-07-10T05:37:41;7.00;;;6.37;;
18042;SDS011;9146;48.074;11.968;2022-07-10T05:40:08;8.23;;;7.53;;
18042;SDS011;9146;48.074;11.968;2022-07-10T05:42:36;6.83;;;6.23;;
18042;SDS011;9146;48.074;11.968;2022-07-10T05:45:03;6.53;;;5.93;;
18042;SDS011;9146;48.074;11.968;2022-07-10T05:47:31;7.80;;;6.57;;
18042;SDS011;9146;48.074;11.968;2022-07-10T05:49:59;9.63;;;6.87;;
18042;SDS011;9146;48.074;11.968;2022-07-10T05:52:27;8.10;;;6.10;;
18042;SDS011;9146;48.074;11.968;2022-07-10T05:54:55;9.27;;;6.70;;
18042;SDS011;9146;48.074;11.968;2022-07-10T05:57:22;8.10;;;6.80;;
18042;SDS011;9146;48.074;11.968;2022-07-10T05:59:49;8.00;;;7.30;;
18042;SDS011;9146;48.074;11.968;2022-07-10T06:02:17;7.50;;;6.80;;
18042;SDS011;9146;48.074;11.968;2022-07-10T06:04:45;8.03;;;6.87;;
18042;SDS011;9146;48.074;11.968;2022-07-10T06:07:11;9.30;;;7.07;;
18042;SDS011;9146;48.074;11.968;2022-07-10T06:09:40;8.60;;;7.70;;
18042;SDS011;9146;48.074;11.968;2022-07-10T06:12:07;7.53;;;6.77;;
18042;SDS011;9146;48.074;11.968;2022-07-10T06:14:34;8.70;;;7.90;;
18042;SDS011;9146;48.074;11.968;2022-07-10T06:17:01;8.80;;;8.00;;
18042;SDS011;9146;48.074;11.968;2022-07-10T06:19:28;8.40;;;7.60;;
18042;SDS011;9146;48.074;11.968;2022-07-10T06:21:55;9.53;;;8.63;;
18042;SDS011;9146;48.074;11.968;2022-07-10T06:24:41;9.53;;;8.37;;
18042;SDS011;9146;48.074;11.968;2022-07-10T06:27:08;9.70;;;8.07;;
18042;SDS011;9146;48.074;11.968;2022-07-10T06:29:35;8.70;;;7.10;;
18042;SDS011;9146;48.074;11.968;2022-07-10T06:32:02;9.03;;;7.50;;
18042;SDS011;9146;48.074;11.968;2022-07-10T06:34:29;9.00;;;8.20;;
18042;SDS011;9146;48.074;11.968;2022-07-10T06:36:56;8.40;;;7.57;;
18042;SDS011;9146;48.074;11.968;2022-07-10T06:39:24;12.33;;;9.57;;
18042;SDS011;9146;48.074;11.968;2022-07-10T06:41:52;7.53;;;6.83;;
18042;SDS011;9146;48.074;11.968;2022-07-10T06:44:19;7.97;;;7.27;;
18042;SDS011;9146;48.074;11.968;2022-07-10T06:46:47;10.07;;;8.53;;
18042;SDS011;9146;48.074;11.968;2022-07-10T06:49:35;6.97;;;6.23;;
18042;SDS011;9146;48.074;11.968;2022-07-10T06:52:01;7.77;;;6.50;;
18042;SDS011;9146;48.074;11.968;2022-07-10T06:54:28;7.23;;;6.63;;
18042;SDS011;9146;48.074;11.968;2022-07-10T06:56:57;6.40;;;5.80;;
18042;SDS011;9146;48.074;11.968;2022-07-10T06:59:24;8.03;;;7.27;;
18042;SDS011;9146;48.074;11.968;2022-07-10T07:01:51;10.50;;;7.17;;
18042;SDS011;9146;48.074;11.968;2022-07-10T07:04:18;10.67;;;6.40;;
18042;SDS011;9146;48.074;11.968;2022-07-10T07:06:45;7.07;;;6.33;;
18042;SDS011;9146;48.074;11.968;2022-07-10T07:09:12;7.97;;;7.27;;
18042;SDS011;9146;48.074;11.968;2022-07-10T07:11:39;7.50;;;6.80;;
18042;SDS011;9146;48.074;11.968;2022-07-10T07:14:07;6.47;;;5.90;;
18042;SDS011;9146;48.074;11.968;2022-07-10T07:16:34;5.80;;;5.30;;
18042;SDS011;9146;48.074;11.968;2022-07-10T07:19:07;7.60;;;6.80;;
18042;SDS011;9146;48.074;11.968;2022-07-10T07:21:35;7.90;;;7.20;;
18042;SDS011;9146;48.074;11.968;2022-07-10T07:24:19;6.80;;;6.30;;
18042;SDS011;9146;48.074;11.968;2022-07-10T07:26:47;7.03;;;6.43;;
18042;SDS011;9146;48.074;11.968;2022-07-10T07:29:16;8.50;;;5.80;;
18042;SDS011;9146;48.074;11.968;2022-07-10T07:31:44;6.80;;;6.20;;
18042;SDS011;9146;48.074;11.968;2022-07-10T07:34:11;7.70;;;6.90;;
18042;SDS011;9146;48.074;11.968;2022-07-10T07:36:38;6.80;;;6.20;;
18042;SDS011;9146;48.074;11.968;2022-07-10T07:39:05;6.73;;;5.90;;
18042;SDS011;9146;48.074;11.968;2022-07-10T07:41:32;6.70;;;5.97;;
18042;SDS011;9146;48.074;11.968;2022-07-10T07:43:59;6.63;;;6.07;;
18042;SDS011;9146;48.074;11.968;2022-07-10T07:46:27;5.57;;;5.07;;
18042;SDS011;9146;48.074;11.968;2022-07-10T07:48:54;11.43;;;5.33;;
18042;SDS011;9146;48.074;11.968;2022-07-10T07:51:22;6.70;;;6.10;;
18042;SDS011;9146;48.074;11.968;2022-07-10T07:53:49;6.90;;;6.23;;
18042;SDS011;9146;48.074;11.968;2022-07-10T07:56:16;6.87;;;6.27;;
18042;SDS011;9146;48.074;11.968;2022-07-10T07:58:43;5.50;;;5.00;;
18042;SDS011;9146;48.074;11.968;2022-07-10T08:01:10;6.40;;;5.90;;
18042;SDS011;9146;48.074;11.968;2022-07-10T08:03:38;7.40;;;6.80;;
18042;SDS011;9146;48.074;11.968;2022-07-10T08:06:05;7.20;;;6.50;;
18042;SDS011;9146;48.074;11.968;2022-07-10T08:08:33;6.10;;;5.50;;
18042;SDS011;9146;48.074;11.968;2022-07-10T08:11:00;7.60;;;6.90;;
18042;SDS011;9146;48.074;11.968;2022-07-10T08:13:26;6.30;;;5.70;;
18042;SDS011;9146;48.074;11.968;2022-07-10T08:15:54;6.97;;;6.13;;
18042;SDS011;9146;48.074;11.968;2022-07-10T08:18:21;5.80;;;5.27;;
18042;SDS011;9146;48.074;11.968;2022-07-10T08:20:49;8.90;;;6.00;;
18042;SDS011;9146;48.074;11.968;2022-07-10T08:23:16;5.43;;;4.93;;
18042;SDS011;9146;48.074;11.968;2022-07-10T08:25:43;8.33;;;5.17;;
18042;SDS011;9146;48.074;11.968;2022-07-10T08:28:10;8.90;;;5.23;;
18042;SDS011;9146;48.074;11.968;2022-07-10T08:30:37;5.10;;;4.70;;
18042;SDS011;9146;48.074;11.968;2022-07-10T08:33:04;4.47;;;4.17;;
18042;SDS011;9146;48.074;11.968;2022-07-10T08:35:31;4.73;;;4.00;;
18042;SDS011;9146;48.074;11.968;2022-07-10T08:38:00;4.60;;;4.20;;
18042;SDS011;9146;48.074;11.968;2022-07-10T08:40:27;4.77;;;4.20;;
18042;SDS011;9146;48.074;11.968;2022-07-10T08:43:01;4.47;;;3.30;;
18042;SDS011;9146;48.074;11.968;2022-07-10T08:45:29;4.33;;;3.90;;
18042;SDS011;9146;48.074;11.968;2022-07-10T08:47:58;5.73;;;4.63;;
18042;SDS011;9146;48.074;11.968;2022-07-10T08:50:29;4.33;;;4.03;;
18042;SDS011;9146;48.074;11.968;2022-07-10T08:53:04;4.97;;;3.87;;
18042;SDS011;9146;48.074;11.968;2022-07-10T08:55:35;5.07;;;3.90;;
18042;SDS011;9146;48.074;11.968;2022-07-10T08:58:03;3.70;;;3.40;;
18042;SDS011;9146;48.074;11.968;2022-07-10T09:00:30;3.30;;;3.10;;
18042;SDS011;9146;48.074;11.968;2022-07-10T09:02:57;4.07;;;3.70;;
18042;SDS011;9146;48.074;11.968;2022-07-10T09:05:24;5.03;;;3.60;;
18042;SDS011;9146;48.074;11.968;2022-07-10T09:07:52;3.30;;;3.00;;
18042;SDS011;9146;48.074;11.968;2022-07-10T09:10:23;3.70;;;3.40;;
18042;SDS011;9146;48.074;11.968;2022-07-10T09:12:54;3.23;;;3.03;;
18042;SDS011;9146;48.074;11.968;2022-07-10T09:15:23;4.40;;;2.87;;
18042;SDS011;9146;48.074;11.968;2022-07-10T09:17:53;4.80;;;2.87;;
18042;SDS011;9146;48.074;11.968;2022-07-10T09:20:24;2.90;;;2.70;;
18042;SDS011;9146;48.074;11.968;2022-07-10T09:22:56;2.80;;;2.60;;
18042;SDS011;9146;48.074;11.968;2022-07-10T09:25:30;3.40;;;2.83;;
18042;SDS011;9146;48.074;11.968;2022-07-10T09:27:59;3.80;;;2.90;;
18042;SDS011;9146;48.074;11.968;2022-07-10T09:30:31;2.70;;;2.50;;
18042;SDS011;9146;48.074;11.968;2022-07-10T09:33:18;4.27;;;2.40;;
18042;SDS011;9146;48.074;11.968;2022-07-10T09:38:51;2.90;;;2.67;;
18042;SDS011;9146;48.074;11.968;2022-07-10T09:41:22;3.17;;;2.83;;
18042;SDS011;9146;48.074;11.968;2022-07-10T09:43:52;2.77;;;2.57;;
18042;SDS011;9146;48.074;11.968;2022-07-10T09:46:21;3.23;;;2.90;;
18042;SDS011;9146;48.074;11.968;2022-07-10T09:49:00;2.50;;;2.30;;
18042;SDS011;9146;48.074;11.968;2022-07-10T09:51:29;4.23;;;2.57;;
18042;SDS011;9146;48.074;11.968;2022-07-10T09:53:59;4.93;;;2.87;;
18042;SDS011;9146;48.074;11.968;2022-07-10T09:56:28;4.77;;;2.73;;
18042;SDS011;9146;48.074;11.968;2022-07-10T09:59:06;5.60;;;2.50;;
18042;SDS011;9146;48.074;11.968;2022-07-10T10:01:36;2.63;;;2.20;;
18042;SDS011;9146;48.074;11.968;2022-07-10T10:04:04;2.30;;;2.20;;
18042;SDS011;9146;48.074;11.968;2022-07-10T10:06:32;2.30;;;2.10;;
18042;SDS011;9146;48.074;11.968;2022-07-10T10:09:03;2.00;;;1.90;;
18042;SDS011;9146;48.074;11.968;2022-07-10T10:11:35;3.60;;;2.63;;
18042;SDS011;9146;48.074;11.968;2022-07-10T10:14:03;2.27;;;2.07;;
18042;SDS011;9146;48.074;11.968;2022-07-10T10:16:32;2.33;;;2.10;;
18042;SDS011;9146;48.074;11.968;2022-07-10T10:19:01;4.70;;;2.00;;
18042;SDS011;9146;48.074;11.968;2022-07-10T10:21:46;1.93;;;1.83;;
18042;SDS011;9146;48.074;11.968;2022-07-10T10:24:13;3.27;;;2.13;;
18042;SDS011;9146;48.074;11.968;2022-07-10T10:26:42;6.00;;;2.10;;
18042;SDS011;9146;48.074;11.968;2022-07-10T10:29:10;5.43;;;1.93;;
18042;SDS011;9146;48.074;11.968;2022-07-10T10:31:37;3.20;;;1.60;;
18042;SDS011;9146;48.074;11.968;2022-07-10T10:34:05;2.30;;;2.00;;
18042;SDS011;9146;48.074;11.968;2022-07-10T10:36:45;4.90;;;2.30;;
18042;SDS011;9146;48.074;11.968;2022-07-10T10:39:13;3.03;;;2.03;;
18042;SDS011;9146;48.074;11.968;2022-07-10T10:41:46;1.90;;;1.70;;
18042;SDS011;9146;48.074;11.968;2022-07-10T10:44:27;4.10;;;2.10;;
18042;SDS011;9146;48.074;11.968;2022-07-10T10:47:02;2.57;;;2.30;;
18042;SDS011;9146;48.074;11.968;2022-07-10T10:52:27;2.20;;;2.00;;
18042;SDS011;9146;48.074;11.968;2022-07-10T10:55:06;3.07;;;2.10;;
18042;SDS011;9146;48.074;11.968;2022-07-10T10:57:40;2.60;;;2.20;;
18042;SDS011;9146;48.074;11.968;2022-07-10T11:00:13;2.27;;;1.70;;
18042;SDS011;9146;48.074;11.968;2022-07-10T11:05:55;1.80;;;1.70;;
18042;SDS011;9146;48.074;11.968;2022-07-10T11:08:38;2.30;;;1.50;;
18042;SDS011;9146;48.074;11.968;2022-07-10T11:14:06;2.80;;;1.90;;
18042;SDS011;9146;48.074;11.968;2022-07-10T11:16:34;3.50;;;1.63;;
18042;SDS011;9146;48.074;11.968;2022-07-10T11:19:01;2.27;;;1.60;;
18042;SDS011;9146;48.074;11.968;2022-07-10T11:21:30;2.07;;;1.87;;
18042;SDS011;9146;48.074;11.968;2022-07-10T11:24:11;4.40;;;2.00;;
18042;SDS011;9146;48.074;11.968;2022-07-10T11:26:54;1.80;;;1.50;;
18042;SDS011;9146;48.074;11.968;2022-07-10T11:29:29;2.23;;;1.47;;
18042;SDS011;9146;48.074;11.968;2022-07-10T11:32:04;2.27;;;2.00;;
18042;SDS011;9146;48.074;11.968;2022-07-10T11:34:36;2.60;;;1.80;;
18042;SDS011;9146;48.074;11.968;2022-07-10T11:37:03;5.63;;;2.03;;
18042;SDS011;9146;48.074;11.968;2022-07-10T11:39:39;2.93;;;1.83;;
18042;SDS011;9146;48.074;11.968;2022-07-10T11:42:06;7.93;;;2.17;;
18042;SDS011;9146;48.074;11.968;2022-07-10T11:44:34;2.07;;;1.80;;
18042;SDS011;9146;48.074;11.968;2022-07-10T11:47:02;2.20;;;2.00;;
18042;SDS011;9146;48.074;11.968;2022-07-10T11:49:30;4.27;;;2.20;;
18042;SDS011;9146;48.074;11.968;2022-07-10T11:52:00;3.00;;;2.20;;
18042;SDS011;9146;48.074;11.968;2022-07-10T11:54:29;3.70;;;2.00;;
18042;SDS011;9146;48.074;11.968;2022-07-10T11:57:03;4.50;;;2.10;;
18042;SDS011;9146;48.074;11.968;2022-07-10T11:59:32;2.73;;;1.93;;
18042;SDS011;9146;48.074;11.968;2022-07-10T12:02:00;5.80;;;1.77;;
18042;SDS011;9146;48.074;11.968;2022-07-10T12:04:28;4.23;;;1.87;;
18042;SDS011;9146;48.074;11.968;2022-07-10T12:06:57;3.93;;;1.90;;
18042;SDS011;9146;48.074;11.968;2022-07-10T12:09:24;3.30;;;1.60;;
18042;SDS011;9146;48.074;11.968;2022-07-10T12:11:57;2.70;;;1.57;;
18042;SDS011;9146;48.074;11.968;2022-07-10T12:14:26;2.13;;;1.83;;
18042;SDS011;9146;48.074;11.968;2022-07-10T12:16:54;3.60;;;1.60;;
18042;SDS011;9146;48.074;11.968;2022-07-10T12:19:24;1.77;;;1.40;;
18042;SDS011;9146;48.074;11.968;2022-07-10T12:21:55;3.63;;;1.50;;
18042;SDS011;9146;48.074;11.968;2022-07-10T12:24:22;2.37;;;1.60;;
18042;SDS011;9146;48.074;11.968;2022-07-10T12:26:51;1.73;;;1.63;;
18042;SDS011;9146;48.074;11.968;2022-07-10T12:29:21;1.67;;;1.30;;
18042;SDS011;9146;48.074;11.968;2022-07-10T12:31:49;3.07;;;1.63;;
18042;SDS011;9146;48.074;11.968;2022-07-10T12:34:17;1.97;;;1.73;;
18042;SDS011;9146;48.074;11.968;2022-07-10T12:36:47;4.03;;;2.00;;
18042;SDS011;9146;48.074;11.968;2022-07-10T12:39:16;2.47;;;1.53;;
18042;SDS011;9146;48.074;11.968;2022-07-10T12:41:53;2.10;;;1.40;;
18042;SDS011;9146;48.074;11.968;2022-07-10T12:44:39;2.70;;;1.30;;
18042;SDS011;9146;48.074;11.968;2022-07-10T12:47:07;3.13;;;1.57;;
18042;SDS011;9146;48.074;11.968;2022-07-10T12:49:49;4.07;;;1.53;;
18042;SDS011;9146;48.074;11.968;2022-07-10T12:52:26;3.53;;;1.80;;
18042;SDS011;9146;48.074;11.968;2022-07-10T12:55:07;4.00;;;2.07;;
18042;SDS011;9146;48.074;11.968;2022-07-10T12:57:48;3.27;;;2.70;;
18042;SDS011;9146;48.074;11.968;2022-07-10T13:00:17;2.97;;;1.60;;
18042;SDS011;9146;48.074;11.968;2022-07-10T13:02:45;2.67;;;1.70;;
18042;SDS011;9146;48.074;11.968;2022-07-10T13:05:25;3.87;;;1.53;;
18042;SDS011;9146;48.074;11.968;2022-07-10T13:08:03;2.00;;;1.60;;
18042;SDS011;9146;48.074;11.968;2022-07-10T13:10:32;2.10;;;1.90;;
18042;SDS011;9146;48.074;11.968;2022-07-10T13:12:59;6.33;;;2.10;;
18042;SDS011;9146;48.074;11.968;2022-07-10T13:15:26;4.33;;;1.90;;
18042;SDS011;9146;48.074;11.968;2022-07-10T13:17:54;3.53;;;1.63;;
18042;SDS011;9146;48.074;11.968;2022-07-10T13:20:21;4.60;;;1.53;;
18042;SDS011;9146;48.074;11.968;2022-07-10T13:22:48;1.60;;;1.50;;
18042;SDS011;9146;48.074;11.968;2022-07-10T13:25:17;3.27;;;1.50;;
18042;SDS011;9146;48.074;11.968;2022-07-10T13:27:44;3.13;;;1.87;;
18042;SDS011;9146;48.074;11.968;2022-07-10T13:30:11;3.30;;;1.90;;
18042;SDS011;9146;48.074;11.968;2022-07-10T13:32:38;9.23;;;2.60;;
18042;SDS011;9146;48.074;11.968;2022-07-10T13:35:05;2.60;;;1.87;;
18042;SDS011;9146;48.074;11.968;2022-07-10T13:37:33;3.90;;;1.97;;
18042;SDS011;9146;48.074;11.968;2022-07-10T13:40:00;3.50;;;1.80;;
18042;SDS011;9146;48.074;11.968;2022-07-10T13:42:28;2.17;;;1.90;;
18042;SDS011;9146;48.074;11.968;2022-07-10T13:44:55;2.63;;;1.63;;
18042;SDS011;9146;48.074;11.968;2022-07-10T13:47:22;2.20;;;1.50;;
18042;SDS011;9146;48.074;11.968;2022-07-10T13:49:49;2.47;;;1.90;;
18042;SDS011;9146;48.074;11.968;2022-07-10T13:52:16;4.93;;;1.10;;
18042;SDS011;9146;48.074;11.968;2022-07-10T13:54:43;2.30;;;1.40;;
18042;SDS011;9146;48.074;11.968;2022-07-10T13:57:10;1.60;;;1.43;;
18042;SDS011;9146;48.074;11.968;2022-07-10T13:59:39;1.40;;;1.30;;
18042;SDS011;9146;48.074;11.968;2022-07-10T14:02:06;2.47;;;1.43;;
18042;SDS011;9146;48.074;11.968;2022-07-10T14:04:33;1.50;;;1.37;;
18042;SDS011;9146;48.074;11.968;2022-07-10T14:07:01;2.90;;;1.67;;
18042;SDS011;9146;48.074;11.968;2022-07-10T14:09:28;2.40;;;1.53;;
18042;SDS011;9146;48.074;11.968;2022-07-10T14:11:55;1.57;;;1.47;;
18042;SDS011;9146;48.074;11.968;2022-07-10T14:14:22;7.90;;;1.63;;
18042;SDS011;9146;48.074;11.968;2022-07-10T14:16:50;4.13;;;1.43;;
18042;SDS011;9146;48.074;11.968;2022-07-10T14:19:17;1.83;;;1.33;;
18042;SDS011;9146;48.074;11.968;2022-07-10T14:21:44;3.73;;;1.40;;
18042;SDS011;9146;48.074;11.968;2022-07-10T14:24:11;2.50;;;1.70;;
18042;SDS011;9146;48.074;11.968;2022-07-10T14:26:38;1.47;;;1.37;;
18042;SDS011;9146;48.074;11.968;2022-07-10T14:29:06;1.73;;;1.40;;
18042;SDS011;9146;48.074;11.968;2022-07-10T14:31:33;1.27;;;1.23;;
18042;SDS011;9146;48.074;11.968;2022-07-10T14:34:01;5.60;;;1.90;;
18042;SDS011;9146;48.074;11.968;2022-07-10T14:36:29;1.60;;;1.50;;
18042;SDS011;9146;48.074;11.968;2022-07-10T14:38:56;2.73;;;1.40;;
18042;SDS011;9146;48.074;11.968;2022-07-10T14:41:24;1.80;;;1.20;;
18042;SDS011;9146;48.074;11.968;2022-07-10T14:43:51;2.83;;;1.47;;
18042;SDS011;9146;48.074;11.968;2022-07-10T14:46:18;1.77;;;1.43;;
18042;SDS011;9146;48.074;11.968;2022-07-10T14:48:45;5.20;;;1.50;;
18042;SDS011;9146;48.074;11.968;2022-07-10T14:51:14;3.13;;;1.10;;
18042;SDS011;9146;48.074;11.968;2022-07-10T14:53:41;4.70;;;1.57;;
18042;SDS011;9146;48.074;11.968;2022-07-10T14:56:10;3.03;;;1.20;;
18042;SDS011;9146;48.074;11.968;2022-07-10T14:58:41;8.73;;;1.77;;
18042;SDS011;9146;48.074;11.968;2022-07-10T15:01:08;1.90;;;1.27;;
18042;SDS011;9146;48.074;11.968;2022-07-10T15:03:35;1.77;;;1.30;;
18042;SDS011;9146;48.074;11.968;2022-07-10T15:06:05;1.80;;;1.30;;